Aérodrome :
LOGIN :

S'inscrire | Disclaimer

   EN    FR    IT 

 










Légende :    VFR   VFR Marginal   IFR   IFR Intensif   IFR Très Intensif
Visi : 
Plafond : 
>= 8 km
>= 3000ft
5 à 8 km
1000 à 3000 ft
1500m à 5 km
500 à 1000 ft
800 à 1500m
200 à 500 ft
< 800m
< 200 ft
Symboles :   Orages  Brouillard  Fortes neiges  Fortes précipitations  Vent > 20 kt
SIGMETs :   Divers  Orages  Givrage  Turbulence  Onde Orograph.  Cendres Volcan.







- Altitude de l'aérodrome : 28 ft
- Code IATA : SOZ
- Voir les cartes d'approche


LFKS - Solenzara

DERNIER METAR :
  • 230400Z AUTO 09006KT 050V140 9999 TS FEW013/// BKN030/// BKN035/// ///CB 21/19 Q1010

METARs EXPIRÉS :
  • 230330Z AUTO 01006KT 330V050 9000 -RA VCTS BKN015/// OVC023/// ///CB 22/20 Q1011
  • 230300Z AUTO 35008KT 9999 SCT019/// SCT086/// BKN130/// ///CB 23/18 Q1010
  • 230230Z AUTO 36009KT 9999 VCTS ///CB 23/18 Q1010
  • 230200Z AUTO 36005KT 9999 TS ///CB 23/17 Q1009
  • 230130Z AUTO VRB02KT 9999 TS ///CB 24/18 Q1009
  • 230100Z AUTO VRB03KT 9999 VCTS FEW054/// BKN100/// BKN150/// ///CB 24/19 Q1009

Prévision TAF périmée.
Pas de NOTAMs connus pour ce terrain.
1 SIGMET publié pour la FIR Marseille (LFMM) :
 
Orages noyés dans la masse
LFMM SIGMET 1 VALID 230000/230400 LFPW
LFMM MARSEILLE FIR/UIR EMBD TS OBS AT 0000Z WI N4315 E00915 - N4315 E00945 - N4145 E00945 - N4200 E00715 - N4315 E00730 - N4315 E00915 TOP FL380 MOV S 10KT NC=



MET'MAP, la Météo Aéronautique d'un coup d'oeil ! - Copyright ORBIFLY Décembre 2007 - Disclaimer

ORBIFLY MET'MAP TEAM :

Programmation & Développement : Alexandra Zaïnal
Conception & Développement : Baudouin d'Aumeries
Co-Programmation & Développement : Marc-Olivier Méhu
Soutien technique & logistique : Manuel Goepfert

Contact : metmap@orbifly.com




SOURCES & CREDITS :

   NOAA